sensor_id;sensor_type;location;lat;lon;timestamp;pressure;altitude;pressure_sealevel;temperature;humidity
14067;BME280;7108;42.684;23.350;2023-06-14T00:02:11;95124.03;;;17.81;100.00
14067;BME280;7108;42.684;23.350;2023-06-14T00:04:36;95123.72;;;17.69;100.00
14067;BME280;7108;42.684;23.350;2023-06-14T00:07:03;95123.41;;;17.63;100.00
14067;BME280;7108;42.684;23.350;2023-06-14T00:09:28;95120.94;;;17.75;100.00
14067;BME280;7108;42.684;23.350;2023-06-14T00:11:54;95126.00;;;17.77;100.00
14067;BME280;7108;42.684;23.350;2023-06-14T00:14:19;95105.78;;;17.74;100.00
14067;BME280;7108;42.684;23.350;2023-06-14T00:16:45;95110.72;;;17.86;100.00
14067;BME280;7108;42.684;23.350;2023-06-14T00:19:10;95107.94;;;17.90;100.00
14067;BME280;7108;42.684;23.350;2023-06-14T00:21:37;95106.72;;;17.94;100.00
14067;BME280;7108;42.684;23.350;2023-06-14T00:24:03;95107.78;;;18.04;100.00
14067;BME280;7108;42.684;23.350;2023-06-14T00:26:29;95101.97;;;18.02;100.00
14067;BME280;7108;42.684;23.350;2023-06-14T00:28:55;95089.91;;;17.99;100.00
14067;BME280;7108;42.684;23.350;2023-06-14T00:31:22;95093.81;;;18.02;100.00
14067;BME280;7108;42.684;23.350;2023-06-14T00:33:47;95100.78;;;18.03;100.00
14067;BME280;7108;42.684;23.350;2023-06-14T00:36:13;95102.66;;;18.09;100.00
14067;BME280;7108;42.684;23.350;2023-06-14T00:38:38;95092.22;;;18.04;100.00
14067;BME280;7108;42.684;23.350;2023-06-14T00:41:04;95094.06;;;18.11;100.00
14067;BME280;7108;42.684;23.350;2023-06-14T00:43:29;95097.94;;;18.13;100.00
14067;BME280;7108;42.684;23.350;2023-06-14T00:45:55;95089.03;;;18.09;100.00
14067;BME280;7108;42.684;23.350;2023-06-14T00:48:21;95089.72;;;18.17;100.00
14067;BME280;7108;42.684;23.350;2023-06-14T00:50:47;95087.00;;;18.17;100.00
14067;BME280;7108;42.684;23.350;2023-06-14T00:53:17;95083.06;;;18.18;100.00
14067;BME280;7108;42.684;23.350;2023-06-14T00:55:43;95086.94;;;18.20;100.00
14067;BME280;7108;42.684;23.350;2023-06-14T00:58:09;95076.56;;;18.08;100.00
14067;BME280;7108;42.684;23.350;2023-06-14T01:00:35;95079.25;;;18.12;100.00
14067;BME280;7108;42.684;23.350;2023-06-14T01:03:01;95081.19;;;18.11;100.00
14067;BME280;7108;42.684;23.350;2023-06-14T01:05:28;95073.81;;;18.12;100.00
14067;BME280;7108;42.684;23.350;2023-06-14T01:13:13;95089.28;;;18.22;100.00
14067;BME280;7108;42.684;23.350;2023-06-14T01:15:42;95080.34;;;18.18;100.00
14067;BME280;7108;42.684;23.350;2023-06-14T01:18:09;95081.91;;;18.15;100.00
14067;BME280;7108;42.684;23.350;2023-06-14T01:20:43;95083.88;;;18.18;100.00
14067;BME280;7108;42.684;23.350;2023-06-14T01:23:10;95084.63;;;18.19;100.00
14067;BME280;7108;42.684;23.350;2023-06-14T01:25:39;95081.91;;;18.15;100.00
14067;BME280;7108;42.684;23.350;2023-06-14T01:28:06;95085.03;;;18.21;100.00
14067;BME280;7108;42.684;23.350;2023-06-14T01:30:40;95069.53;;;18.11;100.00
14067;BME280;7108;42.684;23.350;2023-06-14T01:33:14;95078.06;;;18.13;100.00
14067;BME280;7108;42.684;23.350;2023-06-14T01:35:45;95087.75;;;18.17;100.00
14067;BME280;7108;42.684;23.350;2023-06-14T01:38:12;95064.06;;;18.11;100.00
14067;BME280;7108;42.684;23.350;2023-06-14T01:40:38;95075.69;;;18.18;100.00
14067;BME280;7108;42.684;23.350;2023-06-14T01:43:05;95079.56;;;18.21;100.00
14067;BME280;7108;42.684;23.350;2023-06-14T01:45:31;95073.72;;;18.19;100.00
14067;BME280;7108;42.684;23.350;2023-06-14T01:47:57;95083.06;;;18.18;100.00
14067;BME280;7108;42.684;23.350;2023-06-14T01:50:22;95080.72;;;18.20;100.00
14067;BME280;7108;42.684;23.350;2023-06-14T01:52:48;95062.59;;;18.03;100.00
14067;BME280;7108;42.684;23.350;2023-06-14T01:55:13;95081.16;;;18.15;100.00
14067;BME280;7108;42.684;23.350;2023-06-14T01:57:39;95084.34;;;18.10;100.00
14067;BME280;7108;42.684;23.350;2023-06-14T02:00:05;95088.16;;;18.16;100.00
14067;BME280;7108;42.684;23.350;2023-06-14T02:02:37;95094.03;;;18.14;100.00
14067;BME280;7108;42.684;23.350;2023-06-14T02:05:03;95087.09;;;18.06;100.00
14067;BME280;7108;42.684;23.350;2023-06-14T02:07:29;95087.56;;;18.01;100.00
14067;BME280;7108;42.684;23.350;2023-06-14T02:09:54;95100.31;;;18.08;100.00
14067;BME280;7108;42.684;23.350;2023-06-14T02:12:20;95094.94;;;18.04;100.00
14067;BME280;7108;42.684;23.350;2023-06-14T02:14:45;95097.28;;;18.02;100.00
14067;BME280;7108;42.684;23.350;2023-06-14T02:17:11;95106.25;;;17.99;100.00
14067;BME280;7108;42.684;23.350;2023-06-14T02:19:36;95113.50;;;17.79;100.00
14067;BME280;7108;42.684;23.350;2023-06-14T02:22:02;95103.44;;;17.73;100.00
14067;BME280;7108;42.684;23.350;2023-06-14T02:24:27;95104.13;;;17.84;100.00
14067;BME280;7108;42.684;23.350;2023-06-14T02:26:53;95102.25;;;17.77;100.00
14067;BME280;7108;42.684;23.350;2023-06-14T02:29:18;95124.13;;;17.71;100.00
14067;BME280;7108;42.684;23.350;2023-06-14T02:31:44;95115.50;;;17.75;100.00
14067;BME280;7108;42.684;23.350;2023-06-14T02:34:12;95109.25;;;17.78;100.00
14067;BME280;7108;42.684;23.350;2023-06-14T02:36:37;95121.28;;;17.81;100.00
14067;BME280;7108;42.684;23.350;2023-06-14T02:39:07;95109.25;;;17.78;100.00
14067;BME280;7108;42.684;23.350;2023-06-14T02:41:34;95103.06;;;17.71;100.00
14067;BME280;7108;42.684;23.350;2023-06-14T02:44:00;95110.53;;;17.67;100.00
14067;BME280;7108;42.684;23.350;2023-06-14T02:46:25;95115.19;;;17.70;100.00
14067;BME280;7108;42.684;23.350;2023-06-14T02:48:51;95112.44;;;17.70;100.00
14067;BME280;7108;42.684;23.350;2023-06-14T02:51:16;95104.16;;;17.40;100.00
14067;BME280;7108;42.684;23.350;2023-06-14T02:53:42;95111.56;;;17.40;100.00
14067;BME280;7108;42.684;23.350;2023-06-14T02:56:07;95112.97;;;17.55;100.00
14067;BME280;7108;42.684;23.350;2023-06-14T02:58:32;95114.91;;;17.58;100.00
14067;BME280;7108;42.684;23.350;2023-06-14T03:00:58;95114.94;;;17.54;100.00
14067;BME280;7108;42.684;23.350;2023-06-14T03:03:27;95130.47;;;17.57;100.00
14067;BME280;7108;42.684;23.350;2023-06-14T03:05:53;95128.88;;;17.60;100.00
14067;BME280;7108;42.684;23.350;2023-06-14T03:08:20;95130.41;;;17.64;100.00
14067;BME280;7108;42.684;23.350;2023-06-14T03:10:46;95124.94;;;17.68;100.00
14067;BME280;7108;42.684;23.350;2023-06-14T03:13:15;95117.97;;;17.63;100.00
14067;BME280;7108;42.684;23.350;2023-06-14T03:15:42;95128.84;;;17.67;100.00
14067;BME280;7108;42.684;23.350;2023-06-14T03:18:08;95122.66;;;17.63;100.00
14067;BME280;7108;42.684;23.350;2023-06-14T03:20:41;95127.69;;;17.64;100.00
14067;BME280;7108;42.684;23.350;2023-06-14T03:23:08;95119.63;;;17.50;100.00
14067;BME280;7108;42.684;23.350;2023-06-14T03:25:34;95127.00;;;17.53;100.00
14067;BME280;7108;42.684;23.350;2023-06-14T03:28:04;95136.34;;;17.52;100.00
14067;BME280;7108;42.684;23.350;2023-06-14T03:30:30;95130.50;;;17.54;100.00
14067;BME280;7108;42.684;23.350;2023-06-14T03:32:56;95126.97;;;17.60;100.00
14067;BME280;7108;42.684;23.350;2023-06-14T03:35:22;95130.84;;;17.59;100.00
14067;BME280;7108;42.684;23.350;2023-06-14T03:37:48;95135.91;;;17.61;100.00
14067;BME280;7108;42.684;23.350;2023-06-14T03:40:15;95147.94;;;17.63;100.00
14067;BME280;7108;42.684;23.350;2023-06-14T03:42:41;95128.16;;;17.56;100.00
14067;BME280;7108;42.684;23.350;2023-06-14T03:45:07;95144.44;;;17.63;100.00
14067;BME280;7108;42.684;23.350;2023-06-14T03:47:33;95132.06;;;17.55;100.00
14067;BME280;7108;42.684;23.350;2023-06-14T03:49:59;95135.47;;;17.62;100.00
14067;BME280;7108;42.684;23.350;2023-06-14T03:52:25;95146.38;;;17.62;100.00
14067;BME280;7108;42.684;23.350;2023-06-14T03:54:51;95135.06;;;17.64;100.00
14067;BME280;7108;42.684;23.350;2023-06-14T03:57:16;95135.03;;;17.67;100.00
14067;BME280;7108;42.684;23.350;2023-06-14T03:59:42;95150.53;;;17.73;100.00
14067;BME280;7108;42.684;23.350;2023-06-14T04:02:09;95144.78;;;17.68;100.00
14067;BME280;7108;42.684;23.350;2023-06-14T04:04:35;95148.66;;;17.67;100.00
14067;BME280;7108;42.684;23.350;2023-06-14T04:07:01;95153.28;;;17.73;100.00
14067;BME280;7108;42.684;23.350;2023-06-14T04:09:29;95135.84;;;17.68;100.00
14067;BME280;7108;42.684;23.350;2023-06-14T04:11:55;95141.56;;;17.80;100.00
14067;BME280;7108;42.684;23.350;2023-06-14T04:14:21;95153.56;;;17.86;100.00
14067;BME280;7108;42.684;23.350;2023-06-14T04:16:47;95143.41;;;17.86;100.00
14067;BME280;7108;42.684;23.350;2023-06-14T04:19:13;95148.47;;;17.88;100.00
14067;BME280;7108;42.684;23.350;2023-06-14T04:21:38;95149.16;;;17.95;100.00
14067;BME280;7108;42.684;23.350;2023-06-14T04:24:04;95147.16;;;17.99;100.00
14067;BME280;7108;42.684;23.350;2023-06-14T04:26:30;95139.41;;;17.98;100.00
14067;BME280;7108;42.684;23.350;2023-06-14T04:28:59;95141.38;;;17.94;100.00
14067;BME280;7108;42.684;23.350;2023-06-14T04:31:28;95143.63;;;18.02;100.00
14067;BME280;7108;42.684;23.350;2023-06-14T04:33:55;95130.44;;;17.97;100.00
14067;BME280;7108;42.684;23.350;2023-06-14T04:36:21;95131.56;;;18.03;100.00
14067;BME280;7108;42.684;23.350;2023-06-14T04:38:46;95143.19;;;18.07;100.00
14067;BME280;7108;42.684;23.350;2023-06-14T04:41:12;95147.38;;;18.15;100.00
14067;BME280;7108;42.684;23.350;2023-06-14T04:43:38;95140.44;;;18.11;100.00
14067;BME280;7108;42.684;23.350;2023-06-14T04:46:06;95148.97;;;18.13;100.00
14067;BME280;7108;42.684;23.350;2023-06-14T04:48:42;95144.72;;;18.12;100.00
14067;BME280;7108;42.684;23.350;2023-06-14T04:51:11;95147.78;;;18.14;100.00
14067;BME280;7108;42.684;23.350;2023-06-14T04:53:36;95152.91;;;18.12;100.00
14067;BME280;7108;42.684;23.350;2023-06-14T04:56:02;95149.09;;;18.02;100.00
14067;BME280;7108;42.684;23.350;2023-06-14T04:58:29;95159.63;;;18.00;100.00
14067;BME280;7108;42.684;23.350;2023-06-14T05:00:55;95150.72;;;17.96;100.00
14067;BME280;7108;42.684;23.350;2023-06-14T05:03:22;95152.53;;;18.06;100.00
14067;BME280;7108;42.684;23.350;2023-06-14T05:05:49;95154.09;;;18.07;100.00
14067;BME280;7108;42.684;23.350;2023-06-14T05:08:15;95169.97;;;18.19;100.00
14067;BME280;7108;42.684;23.350;2023-06-14T05:10:41;95160.97;;;18.22;100.00
14067;BME280;7108;42.684;23.350;2023-06-14T05:13:06;95167.09;;;18.33;100.00
14067;BME280;7108;42.684;23.350;2023-06-14T05:15:32;95172.84;;;18.39;100.00
14067;BME280;7108;42.684;23.350;2023-06-14T05:17:57;95150.69;;;18.37;100.00
14067;BME280;7108;42.684;23.350;2023-06-14T05:20:23;95153.50;;;18.26;100.00
14067;BME280;7108;42.684;23.350;2023-06-14T05:22:53;95149.63;;;18.27;100.00
14067;BME280;7108;42.684;23.350;2023-06-14T05:25:19;95165.91;;;18.34;100.00
14067;BME280;7108;42.684;23.350;2023-06-14T05:27:45;95165.88;;;18.38;100.00
14067;BME280;7108;42.684;23.350;2023-06-14T05:30:12;95165.81;;;18.41;100.00
14067;BME280;7108;42.684;23.350;2023-06-14T05:32:37;95184.03;;;18.51;100.00
14067;BME280;7108;42.684;23.350;2023-06-14T05:35:03;95174.28;;;18.50;100.00
14067;BME280;7108;42.684;23.350;2023-06-14T05:37:29;95170.78;;;18.49;100.00
14067;BME280;7108;42.684;23.350;2023-06-14T05:39:56;95178.03;;;18.59;100.00
14067;BME280;7108;42.684;23.350;2023-06-14T05:42:21;95175.69;;;18.61;100.00
14067;BME280;7108;42.684;23.350;2023-06-14T05:44:46;95185.03;;;18.64;100.00
14067;BME280;7108;42.684;23.350;2023-06-14T05:47:12;95178.84;;;18.60;100.00
14067;BME280;7108;42.684;23.350;2023-06-14T05:49:37;95171.63;;;18.43;100.00
14067;BME280;7108;42.684;23.350;2023-06-14T05:52:03;95156.25;;;18.26;100.00
14067;BME280;7108;42.684;23.350;2023-06-14T05:54:29;95182.47;;;18.50;100.00
14067;BME280;7108;42.684;23.350;2023-06-14T05:56:54;95188.59;;;18.61;100.00
14067;BME280;7108;42.684;23.350;2023-06-14T05:59:19;95174.59;;;18.55;100.00
14067;BME280;7108;42.684;23.350;2023-06-14T06:01:45;95179.25;;;18.58;100.00
14067;BME280;7108;42.684;23.350;2023-06-14T06:04:11;95178.44;;;18.61;100.00
14067;BME280;7108;42.684;23.350;2023-06-14T06:06:37;95176.13;;;18.60;100.00
14067;BME280;7108;42.684;23.350;2023-06-14T06:09:02;95172.94;;;18.65;100.00
14067;BME280;7108;42.684;23.350;2023-06-14T06:11:28;95174.63;;;18.52;100.00
14067;BME280;7108;42.684;23.350;2023-06-14T06:13:53;95182.06;;;18.51;100.00
14067;BME280;7108;42.684;23.350;2023-06-14T06:16:19;95193.50;;;18.69;100.00
14067;BME280;7108;42.684;23.350;2023-06-14T06:18:44;95189.25;;;18.68;100.00
14067;BME280;7108;42.684;23.350;2023-06-14T06:21:09;95183.06;;;18.64;100.00
14067;BME280;7108;42.684;23.350;2023-06-14T06:23:35;95192.75;;;18.69;100.00
14067;BME280;7108;42.684;23.350;2023-06-14T06:26:01;95190.41;;;18.71;100.00
14067;BME280;7108;42.684;23.350;2023-06-14T06:28:26;95202.31;;;18.84;100.00
14067;BME280;7108;42.684;23.350;2023-06-14T06:30:52;95205.06;;;18.80;100.00
14067;BME280;7108;42.684;23.350;2023-06-14T06:33:18;95198.47;;;18.78;100.00
14067;BME280;7108;42.684;23.350;2023-06-14T06:35:44;95203.13;;;18.81;100.00
14067;BME280;7108;42.684;23.350;2023-06-14T06:38:09;95201.97;;;18.82;100.00
14067;BME280;7108;42.684;23.350;2023-06-14T06:40:35;95203.47;;;18.83;100.00
14067;BME280;7108;42.684;23.350;2023-06-14T06:43:02;95196.97;;;18.77;100.00
14067;BME280;7108;42.684;23.350;2023-06-14T06:45:28;95193.50;;;18.69;100.00
14067;BME280;7108;42.684;23.350;2023-06-14T06:47:53;95206.41;;;18.69;100.00
14067;BME280;7108;42.684;23.350;2023-06-14T06:50:19;95197.03;;;18.70;100.00
14067;BME280;7108;42.684;23.350;2023-06-14T06:52:51;95208.59;;;18.81;100.00
14067;BME280;7108;42.684;23.350;2023-06-14T06:55:16;95200.88;;;18.76;100.00
14067;BME280;7108;42.684;23.350;2023-06-14T06:57:43;95199.56;;;18.84;100.00
14067;BME280;7108;42.684;23.350;2023-06-14T07:00:09;95207.63;;;18.94;100.00
14067;BME280;7108;42.684;23.350;2023-06-14T07:02:35;95206.38;;;18.99;100.00
14067;BME280;7108;42.684;23.350;2023-06-14T07:05:01;95207.19;;;18.99;100.00
14067;BME280;7108;42.684;23.350;2023-06-14T07:07:26;95197.91;;;18.93;100.00
14067;BME280;7108;42.684;23.350;2023-06-14T07:09:52;95197.44;;;18.98;100.00
14067;BME280;7108;42.684;23.350;2023-06-14T07:12:17;95199.72;;;19.03;100.00
14067;BME280;7108;42.684;23.350;2023-06-14T07:14:43;95188.16;;;18.92;100.00
14067;BME280;7108;42.684;23.350;2023-06-14T07:17:09;95192.81;;;18.95;100.00
14067;BME280;7108;42.684;23.350;2023-06-14T07:19:35;95196.72;;;18.94;100.00
14067;BME280;7108;42.684;23.350;2023-06-14T07:22:00;95197.44;;;18.98;100.00
14067;BME280;7108;42.684;23.350;2023-06-14T07:24:26;95187.34;;;18.95;100.00
14067;BME280;7108;42.684;23.350;2023-06-14T07:26:53;95175.25;;;18.93;100.00
14067;BME280;7108;42.684;23.350;2023-06-14T07:29:18;95185.53;;;19.15;100.00
14067;BME280;7108;42.684;23.350;2023-06-14T07:31:44;95185.78;;;19.24;100.00
14067;BME280;7108;42.684;23.350;2023-06-14T07:34:10;95194.59;;;19.35;100.00
14067;BME280;7108;42.684;23.350;2023-06-14T07:36:35;95177.72;;;19.40;100.00
14067;BME280;7108;42.684;23.350;2023-06-14T07:39:02;95175.75;;;19.40;100.00
14067;BME280;7108;42.684;23.350;2023-06-14T07:41:28;95174.03;;;19.50;100.00
14067;BME280;7108;42.684;23.350;2023-06-14T07:43:54;95187.09;;;19.65;100.00
14067;BME280;7108;42.684;23.350;2023-06-14T07:46:20;95180.78;;;19.68;100.00
14067;BME280;7108;42.684;23.350;2023-06-14T07:48:45;95185.75;;;19.73;100.00
14067;BME280;7108;42.684;23.350;2023-06-14T07:51:11;95178.75;;;19.72;100.00
14067;BME280;7108;42.684;23.350;2023-06-14T07:53:36;95185.88;;;19.89;100.00
14067;BME280;7108;42.684;23.350;2023-06-14T07:56:02;95177.44;;;19.80;100.00
14067;BME280;7108;42.684;23.350;2023-06-14T07:58:28;95188.19;;;19.90;100.00
14067;BME280;7108;42.684;23.350;2023-06-14T08:00:53;95180.31;;;19.96;100.00
14067;BME280;7108;42.684;23.350;2023-06-14T08:03:19;95182.09;;;20.06;100.00
14067;BME280;7108;42.684;23.350;2023-06-14T08:05:44;95185.16;;;20.08;100.00
14067;BME280;7108;42.684;23.350;2023-06-14T08:08:10;95191.06;;;20.06;100.00
14067;BME280;7108;42.684;23.350;2023-06-14T08:10:35;95189.19;;;20.03;100.00
14067;BME280;7108;42.684;23.350;2023-06-14T08:13:01;95189.56;;;20.02;100.00
14067;BME280;7108;42.684;23.350;2023-06-14T08:15:26;95208.81;;;19.98;100.00
14067;BME280;7108;42.684;23.350;2023-06-14T08:17:52;95187.69;;;19.99;100.00
14067;BME280;7108;42.684;23.350;2023-06-14T08:20:17;95191.06;;;20.06;100.00
14067;BME280;7108;42.684;23.350;2023-06-14T08:22:43;95193.44;;;20.04;100.00
14067;BME280;7108;42.684;23.350;2023-06-14T08:25:09;95200.34;;;20.12;100.00
14067;BME280;7108;42.684;23.350;2023-06-14T08:27:35;95189.94;;;20.04;100.00
14067;BME280;7108;42.684;23.350;2023-06-14T08:30:01;95202.31;;;20.12;100.00
14067;BME280;7108;42.684;23.350;2023-06-14T08:32:27;95201.94;;;20.10;100.00
14067;BME280;7108;42.684;23.350;2023-06-14T08:34:52;95195.69;;;20.09;100.00
14067;BME280;7108;42.684;23.350;2023-06-14T08:37:18;95182.91;;;20.03;100.00
14067;BME280;7108;42.684;23.350;2023-06-14T08:39:43;95196.47;;;20.10;100.00
14067;BME280;7108;42.684;23.350;2023-06-14T08:42:09;95204.00;;;20.25;100.00
14067;BME280;7108;42.684;23.350;2023-06-14T08:44:35;95193.84;;;20.26;100.00
14067;BME280;7108;42.684;23.350;2023-06-14T08:47:01;95184.06;;;20.25;100.00
14067;BME280;7108;42.684;23.350;2023-06-14T08:49:29;95186.63;;;20.35;100.00
14067;BME280;7108;42.684;23.350;2023-06-14T08:52:16;95170.91;;;20.39;100.00
14067;BME280;7108;42.684;23.350;2023-06-14T08:54:45;95168.78;;;20.46;100.00
14067;BME280;7108;42.684;23.350;2023-06-14T08:57:14;95177.84;;;20.63;100.00
14067;BME280;7108;42.684;23.350;2023-06-14T08:59:48;95168.22;;;20.55;100.00
14067;BME280;7108;42.684;23.350;2023-06-14T09:02:17;95180.06;;;20.68;100.00
14067;BME280;7108;42.684;23.350;2023-06-14T09:04:44;95173.34;;;20.72;100.00
14067;BME280;7108;42.684;23.350;2023-06-14T09:07:11;95178.13;;;20.88;100.00
14067;BME280;7108;42.684;23.350;2023-06-14T09:09:41;95177.22;;;20.94;100.00
14067;BME280;7108;42.684;23.350;2023-06-14T09:12:11;95155.69;;;20.93;100.00
14067;BME280;7108;42.684;23.350;2023-06-14T09:14:37;95166.00;;;21.05;100.00
14067;BME280;7108;42.684;23.350;2023-06-14T09:17:05;95155.75;;;21.08;100.00
14067;BME280;7108;42.684;23.350;2023-06-14T09:19:30;95143.75;;;21.03;100.00
14067;BME280;7108;42.684;23.350;2023-06-14T09:21:56;95147.19;;;21.07;100.00
14067;BME280;7108;42.684;23.350;2023-06-14T09:24:23;95155.50;;;21.19;100.00
14067;BME280;7108;42.684;23.350;2023-06-14T09:26:51;95167.50;;;21.25;100.00
14067;BME280;7108;42.684;23.350;2023-06-14T09:29:17;95167.75;;;21.30;100.00
14067;BME280;7108;42.684;23.350;2023-06-14T09:31:45;95164.94;;;21.34;100.00
14067;BME280;7108;42.684;23.350;2023-06-14T09:34:11;95162.13;;;21.37;100.00
14067;BME280;7108;42.684;23.350;2023-06-14T09:36:39;95153.53;;;21.35;100.00
14067;BME280;7108;42.684;23.350;2023-06-14T09:39:06;95150.38;;;21.37;100.00
14067;BME280;7108;42.684;23.350;2023-06-14T09:44:01;95140.44;;;21.43;100.00
14067;BME280;7108;42.684;23.350;2023-06-14T09:46:27;95130.34;;;21.40;100.00
14067;BME280;7108;42.684;23.350;2023-06-14T09:48:55;95131.69;;;21.48;100.00
14067;BME280;7108;42.684;23.350;2023-06-14T09:51:22;95136.25;;;21.38;100.00
14067;BME280;7108;42.684;23.350;2023-06-14T09:53:48;95137.69;;;21.43;100.00
14067;BME280;7108;42.684;23.350;2023-06-14T09:56:26;95136.25;;;21.38;100.00
14067;BME280;7108;42.684;23.350;2023-06-14T09:58:56;95133.84;;;21.40;100.00
14067;BME280;7108;42.684;23.350;2023-06-14T10:01:29;95132.56;;;21.45;100.00
14067;BME280;7108;42.684;23.350;2023-06-14T10:04:00;95124.00;;;21.43;100.00
14067;BME280;7108;42.684;23.350;2023-06-14T10:06:28;95116.78;;;21.33;100.00
14067;BME280;7108;42.684;23.350;2023-06-14T10:08:57;95122.47;;;21.26;100.00
14067;BME280;7108;42.684;23.350;2023-06-14T10:11:25;95116.38;;;21.34;100.00
14067;BME280;7108;42.684;23.350;2023-06-14T10:13:51;95104.03;;;21.42;100.00
14067;BME280;7108;42.684;23.350;2023-06-14T10:16:26;95097.19;;;21.66;100.00
14067;BME280;7108;42.684;23.350;2023-06-14T10:21:43;95081.44;;;21.98;100.00
14067;BME280;7108;42.684;23.350;2023-06-14T10:24:13;95093.19;;;21.99;100.00
14067;BME280;7108;42.684;23.350;2023-06-14T10:26:51;95095.16;;;21.98;100.00
14067;BME280;7108;42.684;23.350;2023-06-14T10:29:17;95090.53;;;21.95;100.00
14067;BME280;7108;42.684;23.350;2023-06-14T10:31:44;95104.97;;;22.12;100.00
14067;BME280;7108;42.684;23.350;2023-06-14T10:34:11;95097.97;;;22.11;100.00
14067;BME280;7108;42.684;23.350;2023-06-14T10:36:37;95097.06;;;22.14;100.00
14067;BME280;7108;42.684;23.350;2023-06-14T10:39:06;95098.69;;;22.27;100.00
14067;BME280;7108;42.684;23.350;2023-06-14T10:41:40;95088.38;;;22.31;100.00
14067;BME280;7108;42.684;23.350;2023-06-14T10:46:37;95082.28;;;22.24;100.00
14067;BME280;7108;42.684;23.350;2023-06-14T10:49:03;95079.84;;;22.13;100.00
14067;BME280;7108;42.684;23.350;2023-06-14T10:51:51;95083.34;;;22.14;100.00
14067;BME280;7108;42.684;23.350;2023-06-14T10:54:21;95079.59;;;22.36;100.00
14067;BME280;7108;42.684;23.350;2023-06-14T10:59:13;95069.88;;;22.47;100.00
14067;BME280;7108;42.684;23.350;2023-06-14T11:05:04;95054.56;;;22.34;100.00
14067;BME280;7108;42.684;23.350;2023-06-14T11:07:40;95058.22;;;22.56;100.00
14067;BME280;7108;42.684;23.350;2023-06-14T11:12:56;95048.84;;;23.07;100.00
14067;BME280;7108;42.684;23.350;2023-06-14T11:15:31;95050.44;;;23.29;100.00
14067;BME280;7108;42.684;23.350;2023-06-14T11:17:57;95052.94;;;23.48;100.00
14067;BME280;7108;42.684;23.350;2023-06-14T11:20:29;95054.91;;;23.48;100.00
14067;BME280;7108;42.684;23.350;2023-06-14T11:22:55;95050.66;;;23.34;100.00
14067;BME280;7108;42.684;23.350;2023-06-14T11:25:20;95032.28;;;23.31;100.00
14067;BME280;7108;42.684;23.350;2023-06-14T11:27:46;95028.94;;;23.49;100.00
14067;BME280;7108;42.684;23.350;2023-06-14T11:30:14;95036.31;;;23.52;100.00
14067;BME280;7108;42.684;23.350;2023-06-14T11:32:40;95033.16;;;23.41;100.00
14067;BME280;7108;42.684;23.350;2023-06-14T11:35:06;95027.66;;;23.28;100.00
14067;BME280;7108;42.684;23.350;2023-06-14T11:37:32;95036.25;;;23.30;100.00
14067;BME280;7108;42.684;23.350;2023-06-14T11:40:03;95034.69;;;23.42;100.00
14067;BME280;7108;42.684;23.350;2023-06-14T11:42:35;95036.41;;;23.61;100.00
14067;BME280;7108;42.684;23.350;2023-06-14T11:45:01;95033.19;;;23.75;100.00
14067;BME280;7108;42.684;23.350;2023-06-14T11:47:40;95027.78;;;24.05;100.00
14067;BME280;7108;42.684;23.350;2023-06-14T11:50:07;95011.56;;;24.07;100.00
14067;BME280;7108;42.684;23.350;2023-06-14T11:52:38;95011.81;;;24.21;100.00
14067;BME280;7108;42.684;23.350;2023-06-14T11:55:06;95008.94;;;24.25;100.00
14067;BME280;7108;42.684;23.350;2023-06-14T11:57:35;95022.38;;;24.23;100.00
14067;BME280;7108;42.684;23.350;2023-06-14T12:00:07;95002.72;;;24.12;100.00
14067;BME280;7108;42.684;23.350;2023-06-14T12:02:37;94980.03;;;23.99;100.00
14067;BME280;7108;42.684;23.350;2023-06-14T12:05:07;94973.31;;;24.00;100.00
14067;BME280;7108;42.684;23.350;2023-06-14T12:07:39;94988.91;;;24.03;100.00
14067;BME280;7108;42.684;23.350;2023-06-14T12:10:06;94985.06;;;24.00;100.00
14067;BME280;7108;42.684;23.350;2023-06-14T12:12:40;94992.13;;;24.01;100.00
14067;BME280;7108;42.684;23.350;2023-06-14T12:15:08;94983.97;;;23.98;100.00
14067;BME280;7108;42.684;23.350;2023-06-14T12:17:35;94971.25;;;23.91;100.00
14067;BME280;7108;42.684;23.350;2023-06-14T12:20:12;94974.81;;;23.79;100.00
14067;BME280;7108;42.684;23.350;2023-06-14T12:22:58;94962.44;;;23.63;100.00
14067;BME280;7108;42.684;23.350;2023-06-14T12:25:33;94980.34;;;23.67;100.00
14067;BME280;7108;42.684;23.350;2023-06-14T12:28:05;94979.38;;;23.61;100.00
14067;BME280;7108;42.684;23.350;2023-06-14T12:30:31;94983.50;;;23.57;100.00
14067;BME280;7108;42.684;23.350;2023-06-14T12:32:57;94971.75;;;23.44;100.00
14067;BME280;7108;42.684;23.350;2023-06-14T12:35:22;94962.28;;;23.45;100.00
14067;BME280;7108;42.684;23.350;2023-06-14T12:37:48;94967.34;;;23.46;100.00
14067;BME280;7108;42.684;23.350;2023-06-14T12:40:13;94971.75;;;23.44;100.00
14067;BME280;7108;42.684;23.350;2023-06-14T12:42:40;94958.25;;;23.37;100.00
14067;BME280;7108;42.684;23.350;2023-06-14T12:45:06;94960.69;;;23.35;100.00
14067;BME280;7108;42.684;23.350;2023-06-14T12:47:31;94969.81;;;23.32;100.00
14067;BME280;7108;42.684;23.350;2023-06-14T12:49:57;94959.81;;;23.25;100.00
14067;BME280;7108;42.684;23.350;2023-06-14T12:52:22;94946.19;;;23.22;100.00
14067;BME280;7108;42.684;23.350;2023-06-14T12:54:48;94949.16;;;23.27;100.00
14067;BME280;7108;42.684;23.350;2023-06-14T12:57:13;94940.50;;;23.16;100.00
14067;BME280;7108;42.684;23.350;2023-06-14T12:59:38;94945.34;;;23.13;100.00
14067;BME280;7108;42.684;23.350;2023-06-14T13:02:15;94945.03;;;23.11;100.00
14067;BME280;7108;42.684;23.350;2023-06-14T13:04:41;94962.28;;;23.11;100.00
14067;BME280;7108;42.684;23.350;2023-06-14T13:07:06;94956.13;;;23.07;100.00
14067;BME280;7108;42.684;23.350;2023-06-14T13:09:34;94957.78;;;23.05;100.00
14067;BME280;7108;42.684;23.350;2023-06-14T13:14:25;94937.34;;;22.93;100.00